DEARI EDDH-EDDH
Flight info
| Callsign | DEARI |
|---|---|
| Flight time | 0h 8m |
| Altitude | 3000 |
| Route | HAM |
| Aircraft | BT36/L-BDFGLORY/S |
Departure
| Time | 2026-04-25 20:54 |
|---|---|
| Airport | Hamburg Helmut Schmidt Airport (EDDH) |
Arrival
| Time | 2026-04-25 21:03 |
|---|---|
| Airport | Hamburg Helmut Schmidt Airport (EDDH) |
| Time | Latitude | Longitude | Altitude | Speed | Heading |
|---|---|---|---|---|---|
| 2026-04-25 20:29 | 53.62567 | 9.99567 | 41 ft | 0 kts | 167° |
| 2026-04-25 20:51 | 53.62547 | 9.99515 | 41 ft | 9 kts | 259° |
| 2026-04-25 20:51 | 53.62531 | 9.99395 | 41 ft | 11 kts | 254° |
| 2026-04-25 20:51 | 53.62568 | 9.99338 | 41 ft | 10 kts | 349° |
| 2026-04-25 20:51 | 53.62602 | 9.99445 | 41 ft | 15 kts | 78° |
| 2026-04-25 20:52 | 53.62620 | 9.99599 | 41 ft | 12 kts | 79° |
| 2026-04-25 20:52 | 53.62631 | 9.99698 | 41 ft | 12 kts | 78° |
| 2026-04-25 20:52 | 53.62638 | 9.99757 | 41 ft | 0 kts | 74° |
| 2026-04-25 20:53 | 53.62655 | 9.99817 | 40 ft | 12 kts | 53° |
| 2026-04-25 20:54 | 53.62756 | 9.99842 | 40 ft | 24 kts | 334° |
| 2026-04-25 20:54 | 53.63147 | 9.99505 | 114 ft | 89 kts | 333° |
| 2026-04-25 20:54 | 53.63768 | 9.99053 | 497 ft | 106 kts | 333° |
| 2026-04-25 20:54 | 53.64489 | 9.98534 | 783 ft | 118 kts | 330° |
| 2026-04-25 20:55 | 53.65246 | 9.97875 | 1042 ft | 126 kts | 330° |
| 2026-04-25 20:55 | 53.66127 | 9.97728 | 1242 ft | 139 kts | 12° |
| 2026-04-25 20:55 | 53.66831 | 9.98932 | 1391 ft | 157 kts | 58° |
| 2026-04-25 20:55 | 53.66907 | 10.00807 | 1549 ft | 171 kts | 95° |
| 2026-04-25 20:56 | 53.66340 | 10.02662 | 1636 ft | 182 kts | 127° |
| 2026-04-25 20:56 | 53.65441 | 10.04169 | 1750 ft | 182 kts | 139° |
| 2026-04-25 20:56 | 53.64489 | 10.05540 | 1888 ft | 181 kts | 139° |
| 2026-04-25 20:56 | 53.63509 | 10.06890 | 1974 ft | 184 kts | 143° |
| 2026-04-25 20:57 | 53.62403 | 10.08003 | 2015 ft | 186 kts | 152° |
| 2026-04-25 20:57 | 53.61252 | 10.09064 | 1981 ft | 191 kts | 153° |
| 2026-04-25 20:57 | 53.60059 | 10.10094 | 1966 ft | 192 kts | 154° |
| 2026-04-25 20:57 | 53.58871 | 10.11111 | 1988 ft | 190 kts | 154° |
| 2026-04-25 20:58 | 53.57712 | 10.12107 | 1989 ft | 185 kts | 154° |
| 2026-04-25 20:58 | 53.56557 | 10.13008 | 1976 ft | 180 kts | 167° |
| 2026-04-25 20:58 | 53.55377 | 10.12950 | 1986 ft | 164 kts | 213° |
| 2026-04-25 20:58 | 53.54563 | 10.11777 | 1991 ft | 152 kts | 238° |
| 2026-04-25 20:59 | 53.54090 | 10.10909 | 1991 ft | 152 kts | 238° |
| 2026-04-25 20:59 | 53.53422 | 10.09556 | 1991 ft | 148 kts | 243° |
| 2026-04-25 20:59 | 53.53163 | 10.08067 | 1991 ft | 127 kts | 290° |
| 2026-04-25 20:59 | 53.53596 | 10.06869 | 1996 ft | 119 kts | 328° |
| 2026-04-25 21:00 | 53.54435 | 10.06605 | 1908 ft | 130 kts | 351° |
| 2026-04-25 21:00 | 53.55021 | 10.06364 | 1799 ft | 134 kts | 336° |
| 2026-04-25 21:00 | 53.57091 | 10.04720 | 1339 ft | 142 kts | 332° |
| 2026-04-25 21:01 | 53.57972 | 10.03970 | 1159 ft | 141 kts | 331° |
| 2026-04-25 21:01 | 53.58814 | 10.03245 | 959 ft | 125 kts | 330° |
| 2026-04-25 21:01 | 53.59545 | 10.02615 | 793 ft | 115 kts | 330° |
| 2026-04-25 21:01 | 53.60231 | 10.02025 | 643 ft | 102 kts | 329° |
| 2026-04-25 21:02 | 53.60806 | 10.01531 | 511 ft | 88 kts | 329° |
| 2026-04-25 21:02 | 53.61356 | 10.01056 | 397 ft | 89 kts | 331° |
| 2026-04-25 21:02 | 53.61861 | 10.00615 | 277 ft | 72 kts | 331° |
| 2026-04-25 21:02 | 53.62302 | 10.00236 | 180 ft | 74 kts | 331° |
| 2026-04-25 21:03 | 53.62751 | 9.99846 | 80 ft | 73 kts | 332° |
| 2026-04-25 21:03 | 53.63138 | 9.99511 | 41 ft | 48 kts | 333° |
| 2026-04-25 21:03 | 53.63581 | 9.99128 | 76 ft | 101 kts | 332° |
| 2026-04-25 21:03 | 53.64272 | 9.98608 | 555 ft | 111 kts | 346° |
| 2026-04-25 21:04 | 53.64981 | 9.99176 | 1095 ft | 132 kts | 41° |
| 2026-04-25 21:04 | 53.65250 | 10.00855 | 1159 ft | 165 kts | 85° |
| 2026-04-25 21:04 | 53.64854 | 10.02758 | 1126 ft | 182 kts | 124° |
| 2026-04-25 21:04 | 53.63888 | 10.04230 | 1039 ft | 188 kts | 143° |
| 2026-04-25 21:05 | 53.62853 | 10.05568 | 1004 ft | 188 kts | 141° |
| 2026-04-25 21:05 | 53.61875 | 10.06964 | 999 ft | 178 kts | 140° |
| 2026-04-25 21:05 | 53.60987 | 10.08242 | 987 ft | 159 kts | 140° |
| 2026-04-25 21:05 | 53.60178 | 10.09419 | 990 ft | 149 kts | 140° |
| 2026-04-25 21:06 | 53.59416 | 10.10531 | 986 ft | 142 kts | 140° |
| 2026-04-25 21:06 | 53.58619 | 10.11433 | 992 ft | 138 kts | 154° |
| 2026-04-25 21:06 | 53.57765 | 10.12251 | 989 ft | 143 kts | 153° |
| 2026-04-25 21:06 | 53.57152 | 10.12567 | 989 ft | 137 kts | 188° |
| 2026-04-25 21:07 | 53.56270 | 10.11426 | 1004 ft | 124 kts | 257° |
| 2026-04-25 21:07 | 53.55995 | 10.10047 | 1008 ft | 123 kts | 269° |
| 2026-04-25 21:07 | 53.56065 | 10.08635 | 1009 ft | 126 kts | 282° |
| 2026-04-25 21:07 | 53.56195 | 10.07116 | 1010 ft | 135 kts | 283° |
| 2026-04-25 21:08 | 53.56610 | 10.05713 | 1009 ft | 137 kts | 310° |
| 2026-04-25 21:08 | 53.57328 | 10.04637 | 1013 ft | 140 kts | 327° |
| 2026-04-25 21:08 | 53.58168 | 10.03835 | 1007 ft | 134 kts | 329° |
| 2026-04-25 21:08 | 53.58953 | 10.03138 | 914 ft | 127 kts | 330° |
| 2026-04-25 21:09 | 53.60518 | 10.01781 | 582 ft | 114 kts | 329° |
| 2026-04-25 21:09 | 53.61148 | 10.01236 | 436 ft | 93 kts | 330° |
| 2026-04-25 21:09 | 53.61675 | 10.00781 | 309 ft | 79 kts | 329° |
| 2026-04-25 21:10 | 53.62181 | 10.00344 | 213 ft | 82 kts | 331° |
| 2026-04-25 21:10 | 53.62646 | 9.99937 | 110 ft | 71 kts | 332° |
| 2026-04-25 21:10 | 53.63093 | 9.99547 | 136 ft | 83 kts | 331° |
| 2026-04-25 21:10 | 53.63698 | 9.99051 | 402 ft | 109 kts | 331° |
| 2026-04-25 21:11 | 53.64397 | 9.98482 | 878 ft | 110 kts | 331° |
| 2026-04-25 21:11 | 53.65099 | 9.97945 | 1060 ft | 117 kts | 339° |
| 2026-04-25 21:11 | 53.65932 | 9.98326 | 1022 ft | 148 kts | 37° |
| 2026-04-25 21:11 | 53.66363 | 9.99998 | 1043 ft | 164 kts | 76° |
| 2026-04-25 21:12 | 53.66016 | 10.01841 | 989 ft | 173 kts | 130° |
| 2026-04-25 21:12 | 53.65031 | 10.02939 | 978 ft | 168 kts | 155° |
| 2026-04-25 21:12 | 53.64008 | 10.03868 | 985 ft | 166 kts | 152° |
| 2026-04-25 21:12 | 53.63341 | 10.04497 | 973 ft | 166 kts | 154° |
| 2026-04-25 21:13 | 53.62006 | 10.05562 | 1005 ft | 142 kts | 168° |
| 2026-04-25 21:13 | 53.61134 | 10.05408 | 953 ft | 120 kts | 223° |
| 2026-04-25 21:13 | 53.60664 | 10.04406 | 922 ft | 107 kts | 250° |
| 2026-04-25 21:13 | 53.60361 | 10.03268 | 842 ft | 107 kts | 256° |
| 2026-04-25 21:14 | 53.60422 | 10.02092 | 650 ft | 101 kts | 303° |
| 2026-04-25 21:14 | 53.60921 | 10.01407 | 539 ft | 86 kts | 330° |
| 2026-04-25 21:14 | 53.61405 | 10.01020 | 424 ft | 71 kts | 328° |
| 2026-04-25 21:14 | 53.61843 | 10.00634 | 300 ft | 73 kts | 329° |
| 2026-04-25 21:15 | 53.62323 | 10.00218 | 189 ft | 80 kts | 332° |
| 2026-04-25 21:15 | 53.62788 | 9.99814 | 53 ft | 71 kts | 333° |
| 2026-04-25 21:15 | 53.63130 | 9.99517 | 40 ft | 40 kts | 333° |
| 2026-04-25 21:15 | 53.63261 | 9.99363 | 41 ft | 8 kts | 255° |
| 2026-04-25 21:16 | 53.63185 | 9.99335 | 41 ft | 16 kts | 193° |
| 2026-04-25 21:16 | 53.63070 | 9.99284 | 41 ft | 18 kts | 204° |
| 2026-04-25 21:16 | 53.62977 | 9.99130 | 41 ft | 19 kts | 229° |
| 2026-04-25 21:16 | 53.62891 | 9.98961 | 41 ft | 20 kts | 230° |
| 2026-04-25 21:17 | 53.62814 | 9.98803 | 41 ft | 10 kts | 227° |
| 2026-04-25 21:17 | 53.62756 | 9.98829 | 41 ft | 9 kts | 151° |
| 2026-04-25 21:17 | 53.62715 | 9.98836 | 41 ft | 3 kts | 230° |
| 2026-04-25 21:17 | 53.62705 | 9.98805 | 41 ft | 0 kts | 242° |
| 2026-04-25 21:18 | 53.62704 | 9.98804 | 41 ft | 0 kts | 240° |